Arleta, California
Current Conditions -  °F | °C
As of 4:53 PM on Wednesday 22 Oct 2014 (Local Time) from KBUR Reporting Station
Clear Clear  
Wind Chill: 82°   Ceiling: Unl
Heat Index: 82°   Visibility: 10mi
Dew Point: 48°   Wind: 7mph
Humidity: 30%   Direction: 170°S
Pressure: 29.89"   Gusts: NA
Location:  34.2574°N, 118.255°W
Report Text: KBUR 222353Z 17006KT 10SM CLR 28/09 A2989 RMK AO2 SLP107 T02780089 10311 20233 56005 $
Loading
Personal Weather Stations






























Interactive Weather Map
Tropical Storm Tracking
New forecast layout! Learn more

10-Day Weather Forecast

Advertisements
Track Severe Weather on mobile